createdAt,value
2022-12-18T00:01:20.930Z,98910.91
2022-12-18T00:03:48.486Z,98908.06
2022-12-18T00:06:16.027Z,98902.44
2022-12-18T00:08:44.557Z,98904.69
2022-12-18T00:11:20.549Z,98908.09
2022-12-18T00:13:48.011Z,98908.84
2022-12-18T00:16:21.402Z,98897.16
2022-12-18T00:18:53.794Z,98904.81
2022-12-18T00:21:21.482Z,98907.91
2022-12-18T00:23:50.247Z,98893.84
2022-12-18T00:26:20.968Z,98907.91
2022-12-18T00:28:50.358Z,98912.56
2022-12-18T00:31:20.229Z,98913.16
2022-12-18T00:33:47.561Z,98912.38
2022-12-18T00:36:20.447Z,98916.69
2022-12-18T00:38:48.691Z,98907.38
2022-12-18T00:41:37.904Z,98909.03
2022-12-18T00:44:06.637Z,98909.84
2022-12-18T00:46:33.656Z,98902.16
2022-12-18T00:49:00.749Z,98909.63
2022-12-18T00:51:27.884Z,98914.22
2022-12-18T00:53:55.384Z,98925.78
2022-12-18T00:56:22.590Z,98923.38
2022-12-18T00:58:49.963Z,98921.72
2022-12-18T01:01:17.745Z,98928.38
2022-12-18T01:03:46.389Z,98925.66
2022-12-18T01:06:15.192Z,98931.38
2022-12-18T01:08:42.229Z,98934.81
2022-12-18T01:11:15.858Z,98931.63
2022-12-18T01:13:43.407Z,98933.16
2022-12-18T01:16:13.043Z,98947.16
2022-12-18T01:18:40.180Z,98938.31
2022-12-18T01:21:09.056Z,98946.56
2022-12-18T01:23:38.447Z,98950.06
2022-12-18T01:26:13.827Z,98948.84
2022-12-18T01:28:41.255Z,98957.28
2022-12-18T01:31:18.156Z,98957.13
2022-12-18T01:33:46.082Z,98964.75
2022-12-18T01:36:35.408Z,98959.16
2022-12-18T01:39:08.667Z,98970.22
2022-12-18T01:41:55.435Z,98957.13
2022-12-18T01:44:47.388Z,98974.34
2022-12-18T01:47:26.582Z,98965.91
2022-12-18T01:49:54.859Z,98963.66
2022-12-18T01:52:23.200Z,98958.19
2022-12-18T01:54:52.656Z,98964.78
2022-12-18T01:57:20.284Z,98968.28
2022-12-18T01:59:51.979Z,98971.53
2022-12-18T02:02:19.066Z,98969.25
2022-12-18T02:04:49.529Z,98966.97
2022-12-18T02:07:35.903Z,98971.63
2022-12-18T02:10:27.393Z,98967.22
2022-12-18T02:13:11.565Z,98979.88
2022-12-18T02:15:51.197Z,98972.94
2022-12-18T02:18:24.710Z,98967.50
2022-12-18T02:21:00.737Z,98962.78
2022-12-18T02:24:04.444Z,98971.63
2022-12-18T02:26:39.048Z,98978.91
2022-12-18T02:29:12.875Z,98979.34
2022-12-18T02:31:45.247Z,98974.34
2022-12-18T02:34:13.651Z,98964.63
2022-12-18T02:36:44.817Z,98972.06
2022-12-18T02:39:13.944Z,98969.75
2022-12-18T02:41:49.517Z,98967.41
2022-12-18T02:44:16.538Z,98961.91
2022-12-18T02:46:47.566Z,98962.56
2022-12-18T02:49:45.292Z,98956.72
2022-12-18T02:52:42.828Z,98953.06
2022-12-18T02:55:14.607Z,98946.72
2022-12-18T02:58:07.812Z,98961.56
2022-12-18T03:00:47.786Z,98955.88
2022-12-18T03:03:26.000Z,98957.44
2022-12-18T03:06:05.773Z,98950.06
2022-12-18T03:08:38.333Z,98951.56
2022-12-18T03:11:09.903Z,98946.84
2022-12-18T03:13:51.942Z,98954.38
2022-12-18T03:16:25.579Z,98950.34
2022-12-18T03:18:58.984Z,98958.81
2022-12-18T03:21:40.163Z,98952.88
2022-12-18T03:24:10.498Z,98948.13
2022-12-18T03:26:42.324Z,98950.03
2022-12-18T03:29:14.664Z,98951.63
2022-12-18T03:31:46.496Z,98952.34
2022-12-18T03:34:27.968Z,98952.25
2022-12-18T03:36:58.242Z,98959.94
2022-12-18T03:39:25.997Z,98954.97
2022-12-18T03:42:15.680Z,98948.81
2022-12-18T03:45:10.840Z,98952.75
2022-12-18T03:47:57.548Z,98954.44
2022-12-18T03:50:50.561Z,98950.97
2022-12-18T03:53:20.236Z,98946.28
2022-12-18T03:55:50.882Z,98950.16
2022-12-18T03:58:23.845Z,98954.00
2022-12-18T04:01:03.262Z,98959.44
2022-12-18T04:03:33.425Z,98955.41
2022-12-18T04:06:02.579Z,98954.53
2022-12-18T04:08:30.826Z,98962.25
2022-12-18T04:11:05.365Z,98961.38
2022-12-18T04:13:37.141Z,98968.63
2022-12-18T04:16:08.229Z,98974.31
2022-12-18T04:18:35.938Z,98973.31
2022-12-18T04:21:03.578Z,98971.84
2022-12-18T04:23:30.570Z,98964.03
2022-12-18T04:25:59.619Z,98968.34
2022-12-18T04:28:47.262Z,98960.72
2022-12-18T04:31:15.948Z,98951.25
2022-12-18T04:33:43.045Z,98961.69
2022-12-18T04:36:10.789Z,98960.78
2022-12-18T04:38:38.312Z,98962.28
2022-12-18T04:41:09.271Z,98965.59
2022-12-18T04:43:37.888Z,98970.66
2022-12-18T04:46:06.979Z,98964.34
2022-12-18T04:48:34.455Z,98977.59
2022-12-18T04:51:03.062Z,98982.81
2022-12-18T04:53:30.069Z,98985.88
2022-12-18T04:56:10.211Z,98990.44
2022-12-18T04:58:38.656Z,98994.38
2022-12-18T05:01:06.408Z,98983.50
2022-12-18T05:03:33.255Z,98987.16
2022-12-18T05:06:00.738Z,98985.47
2022-12-18T05:08:34.036Z,98991.34
2022-12-18T05:11:10.243Z,98990.00
2022-12-18T05:13:39.413Z,98995.34
2022-12-18T05:16:07.878Z,98986.50
2022-12-18T05:18:36.119Z,98995.34
2022-12-18T05:21:07.363Z,98995.22
2022-12-18T05:23:38.477Z,99002.69
2022-12-18T05:26:10.434Z,99013.06
2022-12-18T05:28:38.041Z,99017.13
2022-12-18T05:31:06.650Z,99011.00
2022-12-18T05:33:35.593Z,99012.94
2022-12-18T05:36:09.995Z,99001.72
2022-12-18T05:38:39.779Z,99005.22
2022-12-18T05:41:16.540Z,99003.22
2022-12-18T05:43:46.986Z,99001.06
2022-12-18T05:46:21.824Z,98995.44
2022-12-18T05:48:52.017Z,99004.81
2022-12-18T05:51:22.477Z,99007.66
2022-12-18T05:53:54.836Z,98999.41
2022-12-18T05:56:23.609Z,99011.88
2022-12-18T05:58:56.145Z,99020.81
2022-12-18T06:01:30.150Z,99014.59
2022-12-18T06:04:04.161Z,99011.75
2022-12-18T06:06:34.050Z,99023.41
2022-12-18T06:09:02.440Z,99021.38
2022-12-18T06:11:30.099Z,99027.16
2022-12-18T06:14:00.270Z,99029.63
2022-12-18T06:16:30.103Z,99031.03
2022-12-18T06:19:01.093Z,99035.28
2022-12-18T06:21:32.015Z,99039.69
2022-12-18T06:24:02.254Z,99042.88
2022-12-18T06:26:36.825Z,99032.13
2022-12-18T06:29:05.820Z,99037.56
2022-12-18T06:31:35.097Z,99042.97
2022-12-18T06:34:06.842Z,99034.97
2022-12-18T06:36:34.459Z,99047.31
2022-12-18T06:39:03.766Z,99052.59
2022-12-18T06:41:34.296Z,99049.44
2022-12-18T06:44:04.278Z,99063.56
2022-12-18T06:46:35.656Z,99066.28
2022-12-18T06:49:14.724Z,99060.19
2022-12-18T06:51:42.055Z,99054.09
2022-12-18T06:54:11.615Z,99055.09
2022-12-18T06:56:38.606Z,99038.81
2022-12-18T06:59:07.349Z,99035.06
2022-12-18T07:01:34.549Z,99038.38
2022-12-18T07:04:01.755Z,99040.28
2022-12-18T07:06:28.748Z,99044.13
2022-12-18T07:08:56.255Z,99044.91
2022-12-18T07:11:25.345Z,99050.56
2022-12-18T07:13:53.684Z,99038.81
2022-12-18T07:16:25.345Z,99046.03
2022-12-18T07:18:55.004Z,99055.31
2022-12-18T07:21:23.269Z,99057.34
2022-12-18T07:23:51.179Z,99051.59
2022-12-18T07:26:22.378Z,99053.03
2022-12-18T07:28:53.979Z,99053.84
2022-12-18T07:31:23.540Z,99056.88
2022-12-18T07:33:53.826Z,99070.91
2022-12-18T07:36:21.169Z,99070.22
2022-12-18T07:38:50.644Z,99067.63
2022-12-18T07:41:19.873Z,99068.88
2022-12-18T07:43:48.028Z,99076.56
2022-12-18T07:46:17.251Z,99084.69
2022-12-18T07:48:49.308Z,99096.34
2022-12-18T07:51:19.679Z,99103.81
2022-12-18T07:53:49.759Z,99096.25
2022-12-18T07:56:29.055Z,99103.28
2022-12-18T07:58:58.253Z,99120.56
2022-12-18T08:01:25.951Z,99116.94
2022-12-18T08:03:56.084Z,99117.50
2022-12-18T08:06:24.350Z,99128.47
2022-12-18T08:08:56.587Z,99127.56
2022-12-18T08:11:25.536Z,99139.44
2022-12-18T08:13:54.118Z,99133.97
2022-12-18T08:16:22.455Z,99129.78
2022-12-18T08:18:49.892Z,99137.56
2022-12-18T08:21:24.204Z,99139.56
2022-12-18T08:23:52.277Z,99137.03
2022-12-18T08:26:19.895Z,99136.81
2022-12-18T08:28:48.493Z,99140.59
2022-12-18T08:31:17.118Z,99141.94
2022-12-18T08:33:51.383Z,99138.59
2022-12-18T08:36:22.224Z,99142.31
2022-12-18T08:38:56.421Z,99138.72
2022-12-18T08:41:35.231Z,99132.78
2022-12-18T08:44:21.019Z,99116.97
2022-12-18T08:46:47.928Z,99112.16
2022-12-18T08:49:15.035Z,99104.53
2022-12-18T08:51:44.979Z,99103.94
2022-12-18T08:54:15.243Z,99107.34
2022-12-18T08:56:43.213Z,99097.41
2022-12-18T08:59:15.817Z,99092.56
2022-12-18T09:01:47.975Z,99090.09
2022-12-18T09:04:15.712Z,99097.72
2022-12-18T09:06:43.788Z,99103.81
2022-12-18T09:09:17.225Z,99097.75
2022-12-18T09:11:51.979Z,99095.69
2022-12-18T09:14:18.910Z,99101.72
2022-12-18T09:16:45.916Z,99103.19
2022-12-18T09:19:13.011Z,99106.41
2022-12-18T09:21:47.808Z,99112.88
2022-12-18T09:24:17.483Z,99109.88
2022-12-18T09:26:47.786Z,99117.84
2022-12-18T09:29:19.174Z,99105.91
2022-12-18T09:31:46.837Z,99099.81
2022-12-18T09:34:13.864Z,99095.72
2022-12-18T09:36:40.769Z,99088.00
2022-12-18T09:39:08.955Z,99094.47
2022-12-18T09:41:44.324Z,99078.19
2022-12-18T09:44:27.891Z,99081.47
2022-12-18T09:47:06.723Z,99073.72
2022-12-18T09:49:44.614Z,99074.59
2022-12-18T09:52:29.455Z,99070.69
2022-12-18T09:55:03.362Z,99057.44
2022-12-18T09:57:33.847Z,99057.44
2022-12-18T10:00:12.710Z,99059.00
2022-12-18T10:02:39.788Z,99049.66
2022-12-18T10:05:15.582Z,99054.47
2022-12-18T10:07:54.459Z,99055.31
2022-12-18T10:10:49.942Z,99050.78
2022-12-18T10:13:38.831Z,99055.50
2022-12-18T10:16:43.681Z,99054.81
2022-12-18T10:19:35.666Z,99048.66
2022-12-18T10:22:15.304Z,99057.34
2022-12-18T10:25:09.190Z,99046.94
2022-12-18T10:27:39.234Z,99039.59
2022-12-18T10:30:16.128Z,99038.91
2022-12-18T10:32:44.165Z,99035.88
2022-12-18T10:35:25.552Z,99037.63
2022-12-18T10:38:19.476Z,99040.84
2022-12-18T10:41:01.324Z,99044.81
2022-12-18T10:43:39.633Z,99037.38
2022-12-18T10:46:10.669Z,99062.13
2022-12-18T10:48:56.614Z,99062.16
2022-12-18T10:51:33.797Z,99058.34
2022-12-18T10:54:06.423Z,99040.50
2022-12-18T10:56:36.981Z,99047.84
2022-12-18T10:59:07.752Z,99040.25
2022-12-18T11:01:59.285Z,99050.81
2022-12-18T11:04:34.449Z,99056.22
2022-12-18T11:07:10.894Z,99046.59
2022-12-18T11:09:42.648Z,99039.59
2022-12-18T11:12:23.735Z,99039.44
2022-12-18T11:14:57.455Z,99026.91
2022-12-18T11:17:33.117Z,99029.28
2022-12-18T11:20:10.498Z,99027.22
2022-12-18T11:22:39.454Z,99019.84
2022-12-18T11:25:32.404Z,99019.03
2022-12-18T11:28:05.876Z,99036.59
2022-12-18T11:30:37.885Z,99024.81
2022-12-18T11:33:11.476Z,99034.13
2022-12-18T11:36:04.956Z,99029.44
2022-12-18T11:38:43.713Z,99033.69
2022-12-18T11:41:54.752Z,99022.00
2022-12-18T11:44:33.976Z,99013.81
2022-12-18T11:47:23.451Z,99015.44
2022-12-18T11:49:51.827Z,99013.91
2022-12-18T11:52:41.577Z,99009.38
2022-12-18T11:55:18.890Z,99011.09
2022-12-18T11:58:31.320Z,99004.53
2022-12-18T12:01:22.130Z,98996.41
2022-12-18T12:04:09.463Z,98998.88
2022-12-18T12:06:52.037Z,98990.16
2022-12-18T12:09:33.335Z,98987.44
2022-12-18T12:12:19.123Z,98966.06
2022-12-18T12:15:12.885Z,98967.34
2022-12-18T12:18:11.286Z,98949.31
2022-12-18T12:21:11.346Z,98957.22
2022-12-18T12:23:58.126Z,98948.41
2022-12-18T12:26:44.222Z,98932.25
2022-12-18T12:29:28.567Z,98932.09
2022-12-18T12:31:58.591Z,98928.97
2022-12-18T12:34:45.143Z,98928.94
2022-12-18T12:37:57.020Z,98941.31
2022-12-18T12:41:00.529Z,98955.34
2022-12-18T12:43:50.561Z,98961.97
2022-12-18T12:46:22.323Z,98967.03
2022-12-18T12:48:56.396Z,98978.47
2022-12-18T12:51:29.963Z,98989.41
2022-12-18T12:54:01.303Z,98980.47
2022-12-18T12:57:04.304Z,98971.88
2022-12-18T12:59:50.686Z,98960.16
2022-12-18T13:02:39.369Z,98957.13
2022-12-18T13:05:40.902Z,98957.22
2022-12-18T13:08:12.172Z,98943.56
2022-12-18T13:10:44.390Z,98949.13
2022-12-18T13:13:23.752Z,98951.09
2022-12-18T13:16:07.707Z,98953.38
2022-12-18T13:18:36.764Z,98943.56
2022-12-18T13:21:19.209Z,98929.09
2022-12-18T13:23:46.781Z,98922.13
2022-12-18T13:26:17.519Z,98932.19
2022-12-18T13:28:56.594Z,98928.50
2022-12-18T13:31:44.532Z,98923.47
2022-12-18T13:34:29.499Z,98932.44
2022-12-18T13:37:19.595Z,98932.13
2022-12-18T13:39:49.040Z,98929.41
2022-12-18T13:42:36.315Z,98926.16
2022-12-18T13:45:40.133Z,98923.00
2022-12-18T13:48:22.322Z,98929.69
2022-12-18T13:50:54.483Z,98924.50
2022-12-18T13:53:26.146Z,98925.59
2022-12-18T13:55:55.991Z,98926.63
2022-12-18T13:58:24.291Z,98913.53
2022-12-18T14:00:52.347Z,98924.78
2022-12-18T14:03:27.412Z,98915.47
2022-12-18T14:06:02.582Z,98923.56
2022-12-18T14:08:42.826Z,98920.63
2022-12-18T14:11:26.681Z,98932.22
2022-12-18T14:13:55.857Z,98921.31
2022-12-18T14:16:28.572Z,98931.28
2022-12-18T14:19:08.444Z,98940.41
2022-12-18T14:22:02.492Z,98935.81
2022-12-18T14:24:32.614Z,98942.19
2022-12-18T14:27:20.778Z,98932.44
2022-12-18T14:29:48.104Z,98937.63
2022-12-18T14:32:19.552Z,98924.75
2022-12-18T14:34:50.183Z,98927.19
2022-12-18T14:37:23.922Z,98917.00
2022-12-18T14:40:10.984Z,98917.47
2022-12-18T14:42:39.588Z,98925.38
2022-12-18T14:45:47.244Z,98937.28
2022-12-18T14:48:23.400Z,98944.00
2022-12-18T14:51:06.775Z,98939.69
2022-12-18T14:53:52.186Z,98940.53
2022-12-18T14:56:31.882Z,98951.94
2022-12-18T14:59:24.189Z,98942.56
2022-12-18T15:02:02.471Z,98962.28
2022-12-18T15:04:38.491Z,98970.16
2022-12-18T15:07:06.253Z,98963.13
2022-12-18T15:09:38.236Z,98966.69
2022-12-18T15:12:27.280Z,98960.00
2022-12-18T15:14:54.895Z,98962.38
2022-12-18T15:17:27.650Z,98958.47
2022-12-18T15:20:11.766Z,98945.53
2022-12-18T15:22:42.858Z,98947.50
2022-12-18T15:25:38.584Z,98945.94
2022-12-18T15:28:21.647Z,98944.78
2022-12-18T15:31:01.070Z,98932.63
2022-12-18T15:33:32.784Z,98929.09
2022-12-18T15:36:02.382Z,98933.41
2022-12-18T15:38:30.652Z,98938.56
2022-12-18T15:40:58.118Z,98942.09
2022-12-18T15:43:39.272Z,98943.66
2022-12-18T15:46:18.878Z,98946.06
2022-12-18T15:48:52.815Z,98946.81
2022-12-18T15:51:27.034Z,98948.78
2022-12-18T15:53:58.632Z,98947.22
2022-12-18T15:56:45.790Z,98953.13
2022-12-18T15:59:21.604Z,98955.50
2022-12-18T16:01:52.031Z,98954.72
2022-12-18T16:04:22.233Z,98957.84
2022-12-18T16:09:43.832Z,98939.44
2022-12-18T16:12:17.941Z,98937.44
2022-12-18T16:14:45.788Z,98931.19
2022-12-18T16:17:14.212Z,98933.53
2022-12-18T16:19:41.398Z,98925.69
2022-12-18T16:22:23.748Z,98933.16
2022-12-18T16:24:52.537Z,98935.91
2022-12-18T16:27:20.094Z,98917.84
2022-12-18T16:29:48.374Z,98926.88
2022-12-18T16:32:35.468Z,98913.13
2022-12-18T16:35:02.533Z,98915.09
2022-12-18T16:37:30.166Z,98908.00
2022-12-18T16:39:58.265Z,98909.59
2022-12-18T16:42:25.445Z,98920.59
2022-12-18T16:44:53.943Z,98916.25
2022-12-18T16:47:21.660Z,98911.97
2022-12-18T16:49:51.888Z,98904.09
2022-12-18T16:52:21.039Z,98900.56
2022-12-18T16:54:51.666Z,98910.75
2022-12-18T16:57:21.076Z,98910.78
2022-12-18T16:59:51.185Z,98909.19
2022-12-18T17:02:25.606Z,98905.28
2022-12-18T17:05:09.632Z,98911.16
2022-12-18T17:07:38.866Z,98914.31
2022-12-18T17:10:06.294Z,98913.13
2022-12-18T17:12:33.176Z,98911.16
2022-12-18T17:15:00.119Z,98911.97
2022-12-18T17:17:27.082Z,98918.63
2022-12-18T17:19:54.031Z,98908.81
2022-12-18T17:22:23.489Z,98915.88
2022-12-18T17:24:50.877Z,98908.41
2022-12-18T17:27:17.822Z,98903.72
2022-12-18T17:29:48.024Z,98894.69
2022-12-18T17:32:17.729Z,98892.72
2022-12-18T17:34:44.708Z,98889.19
2022-12-18T17:37:11.589Z,98883.31
2022-12-18T17:39:38.671Z,98888.38
2022-12-18T17:42:05.675Z,98882.53
2022-12-18T17:44:35.804Z,98875.44
2022-12-18T17:47:03.140Z,98876.25
2022-12-18T17:49:31.167Z,98880.94
2022-12-18T17:51:58.056Z,98886.81
2022-12-18T17:54:25.127Z,98889.97
2022-12-18T17:56:51.990Z,98895.84
2022-12-18T17:59:18.956Z,98895.84
2022-12-18T18:01:46.576Z,98884.88
2022-12-18T18:04:14.960Z,98889.97
2022-12-18T18:06:42.015Z,98891.94
2022-12-18T18:09:16.332Z,98896.63
2022-12-18T18:12:04.065Z,98900.56
2022-12-18T18:14:32.171Z,98896.66
2022-12-18T18:17:04.059Z,98882.50
2022-12-18T18:19:33.268Z,98884.88
2022-12-18T18:22:00.882Z,98890.75
2022-12-18T18:24:28.167Z,98894.28
2022-12-18T18:26:55.704Z,98897.03
2022-12-18T18:29:25.412Z,98892.72
2022-12-18T18:31:54.884Z,98888.00
2022-12-18T18:34:23.977Z,98885.66
2022-12-18T18:36:52.316Z,98888.00
2022-12-18T18:39:20.646Z,98882.50
2022-12-18T18:41:48.681Z,98882.50
2022-12-18T18:44:26.380Z,98889.59
2022-12-18T18:47:00.134Z,98878.59
2022-12-18T18:49:29.228Z,98880.97
2022-12-18T18:51:59.558Z,98875.47
2022-12-18T18:54:31.303Z,98870.34
2022-12-18T18:59:47.965Z,98847.97
2022-12-18T19:02:19.631Z,98864.06
2022-12-18T19:04:47.214Z,98850.34
2022-12-18T19:07:20.325Z,98852.69
2022-12-18T19:10:00.019Z,98840.13
2022-12-18T19:12:51.263Z,98846.41
2022-12-18T19:15:20.664Z,98841.69
2022-12-18T19:17:50.068Z,98835.41
2022-12-18T19:20:20.216Z,98835.81
2022-12-18T19:22:55.111Z,98830.31
2022-12-18T19:25:35.733Z,98823.25
2022-12-18T19:28:15.349Z,98826.78
2022-12-18T19:30:49.549Z,98828.75
2022-12-18T19:33:41.647Z,98830.31
2022-12-18T19:36:36.401Z,98831.91
2022-12-18T19:39:19.236Z,98827.59
2022-12-18T19:41:47.693Z,98837.00
2022-12-18T19:44:18.272Z,98840.53
2022-12-18T19:46:50.610Z,98831.50
2022-12-18T19:49:23.230Z,98835.41
2022-12-18T19:51:51.066Z,98837.00
2022-12-18T19:54:18.509Z,98828.38
2022-12-18T19:56:47.906Z,98831.50
2022-12-18T19:59:15.410Z,98840.13
2022-12-18T20:01:44.059Z,98823.66
2022-12-18T20:04:11.145Z,98825.59
2022-12-18T20:06:52.684Z,98818.16
2022-12-18T20:09:26.300Z,98819.31
2022-12-18T20:11:54.982Z,98822.06
2022-12-18T20:14:23.373Z,98823.66
2022-12-18T20:16:53.019Z,98816.97
2022-12-18T20:19:24.888Z,98824.84
2022-12-18T20:21:52.367Z,98821.69
2022-12-18T20:24:20.513Z,98820.50
2022-12-18T20:26:48.616Z,98832.66
2022-12-18T20:29:16.043Z,98832.25
2022-12-18T20:31:45.984Z,98840.91
2022-12-18T20:34:15.136Z,98838.56
2022-12-18T20:36:44.049Z,98831.09
2022-12-18T20:39:14.420Z,98838.56
2022-12-18T20:41:44.849Z,98822.47
2022-12-18T20:44:22.860Z,98813.44
2022-12-18T20:46:58.288Z,98812.66
2022-12-18T20:49:27.469Z,98820.13
2022-12-18T20:51:56.600Z,98826.00
2022-12-18T20:54:26.458Z,98818.16
2022-12-18T20:56:57.577Z,98815.00
2022-12-18T20:59:26.202Z,98821.28
2022-12-18T21:01:53.637Z,98820.09
2022-12-18T21:04:22.138Z,98812.63
2022-12-18T21:06:55.708Z,98821.28
2022-12-18T21:09:33.265Z,98818.91
2022-12-18T21:12:40.373Z,98812.25
2022-12-18T21:15:17.279Z,98809.50
2022-12-18T21:17:45.459Z,98809.13
2022-12-18T21:20:18.267Z,98811.47
2022-12-18T21:22:49.575Z,98814.22
2022-12-18T21:25:18.977Z,98807.91
2022-12-18T21:27:47.302Z,98804.78
2022-12-18T21:30:16.472Z,98817.72
2022-12-18T21:32:44.366Z,98799.31
2022-12-18T21:35:11.979Z,98800.47
2022-12-18T21:37:39.342Z,98809.09
2022-12-18T21:40:07.887Z,98798.91
2022-12-18T21:42:53.657Z,98791.44
2022-12-18T21:45:20.593Z,98808.28
2022-12-18T21:47:48.776Z,98793.78
2022-12-18T21:50:17.500Z,98787.88
2022-12-18T21:52:44.469Z,98784.34
2022-12-18T21:55:13.489Z,98795.72
2022-12-18T21:57:42.943Z,98792.97
2022-12-18T22:00:19.029Z,98793.75
2022-12-18T22:03:17.087Z,98791.00
2022-12-18T22:05:38.057Z,98798.44
2022-12-18T22:08:07.031Z,98787.09
2022-12-18T22:10:34.914Z,98781.97
2022-12-18T22:13:02.506Z,98784.31
2022-12-18T22:15:31.113Z,98790.59
2022-12-18T22:18:00.063Z,98778.03
2022-12-18T22:20:30.388Z,98790.59
2022-12-18T22:23:04.215Z,98776.06
2022-12-18T22:25:33.518Z,98780.78
2022-12-18T22:28:35.710Z,98785.88
2022-12-18T22:31:05.369Z,98772.53
2022-12-18T22:33:37.839Z,98776.44
2022-12-18T22:36:07.754Z,98777.97
2022-12-18T22:38:34.951Z,98773.28
2022-12-18T22:41:01.972Z,98779.53
2022-12-18T22:43:30.069Z,98773.66
2022-12-18T22:45:59.235Z,98773.25
2022-12-18T22:48:29.207Z,98788.19
2022-12-18T22:50:59.513Z,98774.81
2022-12-18T22:53:26.761Z,98777.94
2022-12-18T22:56:04.380Z,98783.44
2022-12-18T22:58:32.325Z,98785.41
2022-12-18T23:01:01.858Z,98792.44
2022-12-18T23:03:29.214Z,98777.91
2022-12-18T23:06:07.646Z,98777.09
2022-12-18T23:08:37.220Z,98765.31
2022-12-18T23:11:06.504Z,98770.78
2022-12-18T23:13:34.876Z,98773.91
2022-12-18T23:16:06.678Z,98771.94
2022-12-18T23:18:36.286Z,98755.09
2022-12-18T23:21:11.253Z,98751.91
2022-12-18T23:23:40.552Z,98759.75
2022-12-18T23:26:15.342Z,98749.53
2022-12-18T23:28:43.598Z,98761.72
2022-12-18T23:31:13.240Z,98753.47
2022-12-18T23:33:44.363Z,98754.22
2022-12-18T23:36:16.144Z,98735.00
2022-12-18T23:38:43.711Z,98731.44
2022-12-18T23:41:14.585Z,98723.59
2022-12-18T23:43:41.733Z,98712.19
2022-12-18T23:46:17.232Z,98720.44
2022-12-18T23:48:45.696Z,98714.94
2022-12-18T23:51:17.375Z,98727.50
2022-12-18T23:53:45.215Z,98732.22
2022-12-18T23:56:14.114Z,98728.69
2022-12-18T23:58:42.495Z,98738.09
